Time;durP1;ratioP1;P1;durP2;ratioP2;P2;SDS_P1;SDS_P2;PMS_P1;PMS_P2;Temp;Humidity;BMP_temperature;BMP_pressure;BME280_temperature;BME280_humidity;BME280_pressure;Samples;Min_cycle;Max_cycle;Signal;HPM_P1;HPM_P2
2024/03/21 00:00:54;;;;;;;;;;;;;;;;;;2106418;28;20040;-81
2024/03/21 00:01:54;;;;;;;61.23;37.53;;;;;;;;;;2085274;28;19916;-83
2024/03/21 00:02:56;;;;;;;;;;;;;;;;;;2105087;28;20056;-82
2024/03/21 00:03:56;;;;;;;;;;;;;;;;;;2104756;28;19939;-83
2024/03/21 00:04:57;;;;;;;75.90;43.10;;;;;;;;;;2104653;28;19923;-82
2024/03/21 00:05:57;;;;;;;;;;;;;;;;;;2105649;28;20134;-82
2024/03/21 00:07:02;;;;;;;81.87;49.60;;;;;;;;;;2107315;28;19935;-82
2024/03/21 00:08:04;;;;;;;64.00;36.80;;;;;;;;;;2104389;28;20489;-82
2024/03/21 00:09:04;;;;;;;75.68;43.50;;;;;;;;;;2104400;28;20032;-81
2024/03/21 00:10:06;;;;;;;;;;;;;;;;;;2099702;28;20048;-84
2024/03/21 00:11:06;;;;;;;49.78;30.55;;;;;;;;;;2101719;28;19920;-83
2024/03/21 00:12:09;;;;;;;;;;;;;;;;;;2095951;28;20044;-83
2024/03/21 00:13:11;;;;;;;45.35;28.05;;;;;;;;;;2097526;28;19928;-83
2024/03/21 00:14:11;;;;;;;42.10;27.05;;;;;;;;;;2096629;28;20448;-82
2024/03/21 00:15:12;;;;;;;;;;;;;;;;;;2094994;28;20044;-84
2024/03/21 00:16:13;;;;;;;38.13;25.37;;;;;;;;;;2095283;28;20194;-82
2024/03/21 00:17:13;;;;;;;;;;;;;;;;;;2096156;28;20044;-84
2024/03/21 00:18:15;;;;;;;38.87;24.60;;;;;;;;;;2095129;28;19928;-83
2024/03/21 00:19:15;;;;;;;38.60;24.38;;;;;;;;;;2094811;28;20462;-81
2024/03/21 00:20:17;;;;;;;;;;;;;;;;;;2094160;28;20052;-84
2024/03/21 00:21:19;;;;;;;37.90;24.67;;;;;;;;;;2095300;28;19924;-82
2024/03/21 00:22:20;;;;;;;36.97;24.05;;;;;;;;;;2097276;28;20052;-83
2024/03/21 00:23:21;;;;;;;;;;;;;;;;;;2097267;28;20073;-84
2024/03/21 00:24:21;;;;;;;39.70;24.83;;;;;;;;;;2097178;28;19924;-82
2024/03/21 00:25:23;;;;;;;;;;;;;;;;;;2096675;28;20053;-82
2024/03/21 00:26:23;;;;;;;38.88;24.65;;;;;;;;;;2095178;28;19924;-82
2024/03/21 00:27:25;;;;;;;;;;;;;;;;;;2097917;28;21172;-82
2024/03/21 00:28:26;;;;;;;;;;;;;;;;;;2094853;28;19928;-83
2024/03/21 00:29:28;;;;;;;36.65;24.80;;;;;;;;;;2096132;28;19966;-82
2024/03/21 00:30:29;;;;;;;37.78;24.38;;;;;;;;;;2094545;28;20049;-82
2024/03/21 00:31:30;;;;;;;39.65;25.60;;;;;;;;;;2093921;28;20334;-83
2024/03/21 00:32:30;;;;;;;;;;;;;;;;;;2097386;28;20048;-82
2024/03/21 00:33:31;;;;;;;35.40;24.70;;;;;;;;;;2097625;28;20388;-83
2024/03/21 00:34:32;;;;;;;;;;;;;;;;;;2095177;28;20044;-82
2024/03/21 00:35:33;;;;;;;44.00;24.05;;;;;;;;;;2094743;28;19924;-84
2024/03/21 00:36:33;;;;;;;;;;;;;;;;;;2096703;28;20670;-82
2024/03/21 00:37:34;;;;;;;35.43;23.50;;;;;;;;;;2094320;28;19920;-82
2024/03/21 00:38:36;;;;;;;;;;;;;;;;;;2095564;28;20056;-81
2024/03/21 00:39:38;;;;;;;42.85;25.35;;;;;;;;;;2093463;28;19935;-82
2024/03/21 00:40:38;;;;;;;39.50;25.70;;;;;;;;;;2098412;28;20050;-83
2024/03/21 00:41:39;;;;;;;;;;;;;;;;;;2095852;28;20052;-84
2024/03/21 00:42:42;;;;;;;41.30;23.90;;;;;;;;;;2094304;28;20115;-85
2024/03/21 00:43:43;;;;;;;42.35;25.02;;;;;;;;;;2093608;28;20051;-83
2024/03/21 00:44:43;;;;;;;;;;;;;;;;;;2096253;28;20421;-83
2024/03/21 00:45:46;;;;;;;47.50;26.63;;;;;;;;;;2094067;28;19917;-82
2024/03/21 00:46:48;;;;;;;36.53;24.17;;;;;;;;;;2094648;28;20111;-82
2024/03/21 00:47:48;;;;;;;40.88;23.98;;;;;;;;;;2097153;28;20501;-83
2024/03/21 00:48:49;;;;;;;;;;;;;;;;;;2100787;28;20044;-82
2024/03/21 00:49:50;;;;;;;37.93;23.87;;;;;;;;;;2095464;28;19935;-82
2024/03/21 00:50:51;;;;;;;44.60;25.40;;;;;;;;;;2096807;28;20044;-82
2024/03/21 00:51:52;;;;;;;;;;;;;;;;;;2099190;28;20051;-82
2024/03/21 00:52:53;;;;;;;39.58;25.00;;;;;;;;;;2096777;28;19983;-82
2024/03/21 00:53:54;;;;;;;;;;;;;;;;;;2097946;28;20041;-82
2024/03/21 00:54:55;;;;;;;38.60;25.30;;;;;;;;;;2096549;28;20011;-82
2024/03/21 00:55:56;;;;;;;;;;;;;;;;;;2095693;28;20518;-82
2024/03/21 00:56:57;;;;;;;39.53;25.05;;;;;;;;;;2096164;28;19950;-82
2024/03/21 00:57:58;;;;;;;;;;;;;;;;;;2099527;28;20135;-83
2024/03/21 00:59:00;;;;;;;41.30;24.75;;;;;;;;;;2098545;28;19931;-83
2024/03/21 01:00:02;;;;;;;39.95;25.90;;;;;;;;;;2099427;28;20070;-83
2024/03/21 01:01:03;;;;;;;36.53;24.63;;;;;;;;;;2099328;28;20188;-84
2024/03/21 01:02:04;;;;;;;;;;;;;;;;;;2096891;28;20056;-85
2024/03/21 01:03:05;;;;;;;39.10;24.53;;;;;;;;;;2098341;28;19920;-83
2024/03/21 01:04:06;;;;;;;;;;;;;;;;;;2099147;28;20052;-83
2024/03/21 01:05:08;;;;;;;;;;;;;;;;;;2095280;28;19921;-84
2024/03/21 01:06:09;;;;;;;44.50;24.80;;;;;;;;;;2098161;28;19955;-83
2024/03/21 01:07:10;;;;;;;;;;;;;;;;;;2092628;28;20045;-82
2024/03/21 01:08:11;;;;;;;38.88;24.23;;;;;;;;;;2093810;28;19924;-82
2024/03/21 01:09:11;;;;;;;;;;;;;;;;;;2098990;28;20131;-82
2024/03/21 01:10:12;;;;;;;38.90;24.93;;;;;;;;;;2099248;28;19919;-81
2024/03/21 01:11:13;;;;;;;;;;;;;;;;;;2095721;28;20128;-82
2024/03/21 01:12:14;;;;;;;40.03;24.73;;;;;;;;;;2098362;28;20344;-82
2024/03/21 01:13:16;;;;;;;;;;;;;;;;;;2097920;28;20048;-82
2024/03/21 01:14:17;;;;;;;;;;;;;;;;;;2097155;28;19925;-82
2024/03/21 01:15:18;;;;;;;39.72;24.23;;;;;;;;;;2096836;28;19920;-83
2024/03/21 01:16:19;;;;;;;38.20;24.83;;;;;;;;;;2096602;28;20071;-82
2024/03/21 01:17:19;;;;;;;;;;;;;;;;;;2096962;28;20084;-82
2024/03/21 01:18:25;;;;;;;39.57;25.30;;;;;;;;;;2095663;28;20329;-83
2024/03/21 01:19:27;;;;;;;40.92;25.60;;;;;;;;;;2095378;28;20067;-82
2024/03/21 01:20:27;;;;;;;41.20;25.83;;;;;;;;;;2095748;28;20048;-83
2024/03/21 01:21:29;;;;;;;;;;;;;;;;;;2096357;28;20140;-81
2024/03/21 01:22:30;;;;;;;41.13;25.52;;;;;;;;;;2097416;28;19924;-82
2024/03/21 01:23:31;;;;;;;;;;;;;;;;;;2097157;28;20417;-82
2024/03/21 01:24:32;;;;;;;41.90;24.88;;;;;;;;;;2100936;28;19974;-83
2024/03/21 01:25:33;;;;;;;;;;;;;;;;;;2097199;28;20060;-82
2024/03/21 01:26:34;;;;;;;40.43;25.30;;;;;;;;;;2092921;28;19954;-82
2024/03/21 01:27:35;;;;;;;45.10;26.20;;;;;;;;;;2097745;28;20045;-83
2024/03/21 01:28:36;;;;;;;;;;;;;;;;;;2097497;28;20065;-82
2024/03/21 01:29:38;;;;;;;41.38;25.05;;;;;;;;;;2097661;28;19931;-83
2024/03/21 01:30:39;;;;;;;39.03;24.83;;;;;;;;;;2094900;28;20053;-82
2024/03/21 01:31:39;;;;;;;;;;;;;;;;;;2089648;28;20072;-82
2024/03/21 01:32:40;;;;;;;40.97;25.30;;;;;;;;;;2087699;28;20555;-82
2024/03/21 01:33:41;;;;;;;;;;;;;;;;;;2086202;28;20089;-82
2024/03/21 01:34:42;;;;;;;39.85;24.67;;;;;;;;;;2093315;28;19967;-82
2024/03/21 01:35:43;;;;;;;;;;;;;;;;;;2095583;28;20048;-83
2024/03/21 01:36:46;;;;;;;42.20;26.03;;;;;;;;;;2097924;28;19920;-83
2024/03/21 01:37:48;;;;;;;43.40;25.10;;;;;;;;;;2094509;28;20506;-83
2024/03/21 01:38:49;;;;;;;38.58;24.50;;;;;;;;;;2093779;28;20460;-82
2024/03/21 01:39:49;;;;;;;;;;;;;;;;;;2097380;28;20308;-83
2024/03/21 01:40:50;;;;;;;42.60;26.83;;;;;;;;;;2095379;28;19939;-83
2024/03/21 01:41:51;;;;;;;;;;;;;;;;;;2098177;28;20052;-82
2024/03/21 01:42:52;;;;;;;42.63;25.27;;;;;;;;;;2097294;28;19924;-83
2024/03/21 01:43:54;;;;;;;;;;;;;;;;;;2098649;28;20763;-82
2024/03/21 01:45:00;;;;;;;41.20;25.17;;;;;;;;;;2096395;28;19924;-83
2024/03/21 01:46:15;;;;;;;42.25;26.20;;;;;;;;;;2094278;28;20098;-82
2024/03/21 01:47:16;;;;;;;44.00;27.33;;;;;;;;;;2095708;28;20735;-82
2024/03/21 01:48:16;;;;;;;;;;;;;;;;;;2098817;28;20136;-82
2024/03/21 01:49:18;;;;;;;43.60;26.00;;;;;;;;;;2096695;28;19943;-82
2024/03/21 01:50:18;;;;;;;42.83;26.27;;;;;;;;;;2097198;28;20139;-83
2024/03/21 01:51:20;;;;;;;;;;;;;;;;;;2097784;28;20552;-82
2024/03/21 01:52:21;;;;;;;42.92;25.15;;;;;;;;;;2095040;28;19924;-83
2024/03/21 01:53:22;;;;;;;;;;;;;;;;;;2098194;28;20060;-82
2024/03/21 01:54:23;;;;;;;45.03;26.60;;;;;;;;;;2099209;28;19924;-83
2024/03/21 01:55:24;;;;;;;40.88;27.02;;;;;;;;;;2095544;28;20097;-82
2024/03/21 01:56:24;;;;;;;;;;;;;;;;;;2097711;28;20482;-83
2024/03/21 01:57:26;;;;;;;45.47;27.23;;;;;;;;;;2096806;28;21504;-83
2024/03/21 01:58:26;;;;;;;43.72;27.55;;;;;;;;;;2096575;28;20533;-82
2024/03/21 01:59:29;;;;;;;;;;;;;;;;;;2098327;28;20040;-83
2024/03/21 02:00:30;;;;;;;40.03;25.33;;;;;;;;;;2096708;28;19959;-83
2024/03/21 02:01:31;;;;;;;;;;;;;;;;;;2099409;28;20048;-83
2024/03/21 02:02:31;;;;;;;38.87;25.70;;;;;;;;;;2095754;28;19920;-84
2024/03/21 02:03:33;;;;;;;;;;;;;;;;;;2095542;28;20536;-83
2024/03/21 02:04:33;;;;;;;40.15;25.92;;;;;;;;;;2096820;28;19931;-83
2024/03/21 02:05:34;;;;;;;;;;;;;;;;;;2095131;28;20419;-82
2024/03/21 02:06:36;;;;;;;44.67;27.63;;;;;;;;;;2095763;28;19923;-83
2024/03/21 02:07:37;;;;;;;42.25;25.90;;;;;;;;;;2092879;28;20041;-82
2024/03/21 02:08:38;;;;;;;;;;;;;;;;;;2095270;28;20079;-82
2024/03/21 02:09:38;;;;;;;43.92;25.58;;;;;;;;;;2098211;28;19967;-82
2024/03/21 02:10:40;;;;;;;;;;;;;;;;;;2096179;28;20117;-82
2024/03/21 02:11:40;;;;;;;43.17;26.00;;;;;;;;;;2096065;28;19929;-82
2024/03/21 02:12:41;;;;;;;;;;;;;;;;;;2093562;28;20053;-82
2024/03/21 02:13:42;;;;;;;38.70;24.10;;;;;;;;;;2093371;28;19926;-82
2024/03/21 02:14:44;;;;;;;;;;;;;;;;;;2098692;28;20517;-83
2024/03/21 02:15:47;;;;;;;41.60;26.13;;;;;;;;;;2098794;28;20385;-83
2024/03/21 02:16:50;;;;;;;39.58;26.00;;;;;;;;;;2093733;28;20057;-82
2024/03/21 02:17:50;;;;;;;42.63;26.65;;;;;;;;;;2096063;28;20510;-82
2024/03/21 02:18:53;;;;;;;;;;;;;;;;;;2093271;28;20045;-83
2024/03/21 02:19:54;;;;;;;43.28;26.90;;;;;;;;;;2094041;28;19924;-83
2024/03/21 02:20:55;;;;;;;;;;;;;;;;;;2093349;28;20045;-83
2024/03/21 02:23:17;;;;;;;44.72;27.10;;;;;;;;;;2095693;28;20056;-83
2024/03/21 02:24:17;;;;;;;43.83;25.95;;;;;;;;;;2095782;28;20047;-83
2024/03/21 02:25:18;;;;;;;;;;;;;;;;;;2096461;28;20117;-82
2024/03/21 02:26:19;;;;;;;42.93;25.83;;;;;;;;;;2094950;28;20238;-83
2024/03/21 02:27:20;;;;;;;43.42;26.35;;;;;;;;;;2096447;28;20399;-83
2024/03/21 02:28:21;;;;;;;;;;;;;;;;;;2095467;28;20079;-83
2024/03/21 02:29:22;;;;;;;42.83;25.77;;;;;;;;;;2093631;28;19947;-84
2024/03/21 02:30:24;;;;;;;41.08;26.75;;;;;;;;;;2094513;28;20123;-83
2024/03/21 02:31:25;;;;;;;39.55;26.02;;;;;;;;;;2094089;28;20074;-83
2024/03/21 02:32:25;;;;;;;;;;;;;;;;;;2098873;28;20044;-82
2024/03/21 02:33:26;;;;;;;45.65;27.88;;;;;;;;;;2092613;28;19924;-83
2024/03/21 02:34:26;;;;;;;;;;;;;;;;;;2092126;28;20075;-83
2024/03/21 02:35:28;;;;;;;44.47;26.83;;;;;;;;;;2093358;28;19924;-85
2024/03/21 02:36:29;;;;;;;40.58;26.85;;;;;;;;;;2094237;28;20048;-84
2024/03/21 02:37:31;;;;;;;42.63;26.77;;;;;;;;;;2094076;28;20052;-85
2024/03/21 02:38:32;;;;;;;45.92;26.73;;;;;;;;;;2095748;28;20045;-82
2024/03/21 02:39:33;;;;;;;;;;;;;;;;;;2096885;28;20493;-82
2024/03/21 02:40:34;;;;;;;44.00;26.70;;;;;;;;;;2095753;28;19927;-85
2024/03/21 02:41:34;;;;;;;;;;;;;;;;;;2094538;28;20055;-82
2024/03/21 02:42:36;;;;;;;40.60;24.77;;;;;;;;;;2093931;28;20309;-83
2024/03/21 02:43:37;;;;;;;43.00;26.92;;;;;;;;;;2095483;28;20079;-82
2024/03/21 02:44:37;;;;;;;;;;;;;;;;;;2098129;28;20063;-83
2024/03/21 02:45:38;;;;;;;41.13;25.90;;;;;;;;;;2098037;28;19928;-81
2024/03/21 02:46:40;;;;;;;;;;;;;;;;;;2095661;28;20057;-82
2024/03/21 02:47:41;;;;;;;43.83;27.17;;;;;;;;;;2095945;28;19932;-85
2024/03/21 02:48:42;;;;;;;;;;;;;;;;;;2096659;28;20075;-82
2024/03/21 02:49:43;;;;;;;43.13;26.40;;;;;;;;;;2094900;28;19916;-83
2024/03/21 02:50:44;;;;;;;;;;;;;;;;;;2098174;28;20518;-82
2024/03/21 02:51:44;;;;;;;42.97;26.75;;;;;;;;;;2097490;28;19931;-83
2024/03/21 02:52:47;;;;;;;;;;;;;;;;;;2096197;28;20098;-83
2024/03/21 02:53:50;;;;;;;44.05;27.02;;;;;;;;;;2098074;28;19982;-84
2024/03/21 02:54:50;;;;;;;40.42;26.73;;;;;;;;;;2097540;28;20295;-83
2024/03/21 02:55:51;;;;;;;;;;;;;;;;;;2097026;28;20054;-82
2024/03/21 02:56:51;;;;;;;39.72;25.50;;;;;;;;;;2100552;28;19920;-84
2024/03/21 02:57:52;;;;;;;;;;;;;;;;;;2102461;28;20511;-83
2024/03/21 02:58:54;;;;;;;48.17;27.38;;;;;;;;;;2097295;28;19924;-82
2024/03/21 02:59:54;;;;;;;42.90;26.33;;;;;;;;;;2100072;28;20049;-84
2024/03/21 03:00:55;;;;;;;;;;;;;;;;;;2096323;28;20052;-83
2024/03/21 03:01:56;;;;;;;41.97;25.90;;;;;;;;;;2097817;28;19924;-82
2024/03/21 03:02:57;;;;;;;45.65;27.90;;;;;;;;;;2098439;28;20056;-82
2024/03/21 03:03:57;;;;;;;;;;;;;;;;;;2098508;28;20414;-83
2024/03/21 03:04:58;;;;;;;41.90;26.57;;;;;;;;;;2096642;28;20385;-82
2024/03/21 03:05:58;;;;;;;;;;;;;;;;;;2103067;28;20052;-83
2024/03/21 03:07:00;;;;;;;43.85;27.40;;;;;;;;;;2096812;28;20297;-82
2024/03/21 03:08:02;;;;;;;45.72;27.13;;;;;;;;;;2097509;28;20052;-82
2024/03/21 03:09:02;;;;;;;44.78;28.35;;;;;;;;;;2097828;28;20558;-82
2024/03/21 03:10:04;;;;;;;;;;;;;;;;;;2099370;28;20112;-82
2024/03/21 03:11:05;;;;;;;42.05;26.10;;;;;;;;;;2095227;28;19947;-81
2024/03/21 03:12:05;;;;;;;;;;;;;;;;;;2100253;28;20052;-81
2024/03/21 03:13:06;;;;;;;43.50;28.00;;;;;;;;;;2099215;28;19931;-82
2024/03/21 03:14:08;;;;;;;;;;;;;;;;;;2098545;28;20051;-82
2024/03/21 03:15:10;;;;;;;42.80;26.90;;;;;;;;;;2095573;28;19977;-83
2024/03/21 03:16:10;;;;;;;44.97;29.10;;;;;;;;;;2097551;28;20053;-82
2024/03/21 03:17:11;;;;;;;;;;;;;;;;;;2097296;28;20533;-82
2024/03/21 03:18:12;;;;;;;43.40;26.80;;;;;;;;;;2097031;28;19970;-83
2024/03/21 03:19:13;;;;;;;42.80;28.40;;;;;;;;;;2094309;28;20037;-82
2024/03/21 03:20:13;;;;;;;;;;;;;;;;;;2094966;28;21022;-82
2024/03/21 03:21:14;;;;;;;49.97;28.43;;;;;;;;;;2095304;28;19924;-85
2024/03/21 03:22:14;;;;;;;;;;;;;;;;;;2095043;28;20409;-82
2024/03/21 03:23:17;;;;;;;45.97;27.75;;;;;;;;;;2094516;28;20361;-82
2024/03/21 03:24:18;;;;;;;47.30;28.95;;;;;;;;;;2094902;28;20113;-83
2024/03/21 03:25:19;;;;;;;;;;;;;;;;;;2097217;28;20094;-82
2024/03/21 03:26:21;;;;;;;44.03;28.13;;;;;;;;;;2097175;28;19931;-81
2024/03/21 03:27:21;;;;;;;46.60;27.63;;;;;;;;;;2097712;28;20056;-83
2024/03/21 03:28:22;;;;;;;;;;;;;;;;;;2093917;28;20056;-83
2024/03/21 03:29:23;;;;;;;48.35;27.63;;;;;;;;;;2097932;28;20326;-82
2024/03/21 03:30:24;;;;;;;44.88;27.35;;;;;;;;;;2096147;28;20048;-82
2024/03/21 03:31:25;;;;;;;;;;;;;;;;;;2096092;28;20480;-84
2024/03/21 03:32:27;;;;;;;48.90;29.27;;;;;;;;;;2096582;28;19920;-83
2024/03/21 03:36:06;;;;;;;49.92;29.92;;;;;;;;;;2094923;28;20044;-83
2024/03/21 03:37:07;;;;;;;;;;;;;;;;;;2097214;28;20045;-83
2024/03/21 03:38:09;;;;;;;46.70;29.70;;;;;;;;;;2096306;28;20331;-82
2024/03/21 03:39:12;;;;;;;48.03;29.65;;;;;;;;;;2096347;28;20426;-83
2024/03/21 03:40:14;;;;;;;44.08;29.23;;;;;;;;;;2095254;28;20159;-82
2024/03/21 03:41:15;;;;;;;48.22;30.40;;;;;;;;;;2099413;28;20052;-82
2024/03/21 03:42:19;;;;;;;48.72;29.35;;;;;;;;;;2099516;28;20112;-82
2024/03/21 03:43:20;;;;;;;51.50;31.13;;;;;;;;;;2096308;28;20052;-82
2024/03/21 03:44:23;;;;;;;;;;;;;;;;;;2096887;28;20080;-83
2024/03/21 03:45:24;;;;;;;44.30;30.02;;;;;;;;;;2098740;28;20809;-83
2024/03/21 03:46:25;;;;;;;50.38;30.67;;;;;;;;;;2095819;28;20664;-82
2024/03/21 03:47:25;;;;;;;;;;;;;;;;;;2091578;28;20127;-83
2024/03/21 03:48:27;;;;;;;46.25;29.10;;;;;;;;;;2096585;28;19925;-82
2024/03/21 03:49:28;;;;;;;45.08;29.38;;;;;;;;;;2094656;28;20134;-82
2024/03/21 03:50:28;;;;;;;;;;;;;;;;;;2094855;28;20072;-82
2024/03/21 03:51:30;;;;;;;52.43;29.37;;;;;;;;;;2094371;28;19926;-83
2024/03/21 03:52:30;;;;;;;44.92;28.80;;;;;;;;;;2094045;28;20090;-82
2024/03/21 03:53:30;;;;;;;;;;;;;;;;;;2097315;28;20093;-85
2024/03/21 03:54:32;;;;;;;47.92;28.52;;;;;;;;;;2099565;28;19929;-83
2024/03/21 03:55:33;;;;;;;44.25;29.20;;;;;;;;;;2099317;28;20114;-84
2024/03/21 03:56:34;;;;;;;;;;;;;;;;;;2099352;28;20048;-82
2024/03/21 03:57:35;;;;;;;43.35;27.77;;;;;;;;;;2098023;28;20344;-82
2024/03/21 03:58:36;;;;;;;;;;;;;;;;;;2098975;28;20048;-82
2024/03/21 03:59:38;;;;;;;48.45;28.92;;;;;;;;;;2099738;28;19927;-82
2024/03/21 04:00:38;;;;;;;45.15;28.45;;;;;;;;;;2098773;28;20450;-83
2024/03/21 04:01:39;;;;;;;;;;;;;;;;;;2101030;28;20052;-82
2024/03/21 04:02:42;;;;;;;54.37;30.50;;;;;;;;;;2098452;28;19921;-82
2024/03/21 04:03:44;;;;;;;43.08;29.23;;;;;;;;;;2099910;28;20044;-83
2024/03/21 04:04:45;;;;;;;53.28;30.92;;;;;;;;;;2097221;28;20097;-82
2024/03/21 04:05:50;;;;;;;;;;;;;;;;;;2093852;28;20061;-82
2024/03/21 04:06:52;;;;;;;47.95;28.95;;;;;;;;;;2096410;28;20007;-82
2024/03/21 04:07:53;;;;;;;45.70;29.98;;;;;;;;;;2094040;28;20071;-83
2024/03/21 04:08:54;;;;;;;48.42;30.00;;;;;;;;;;2094531;28;20048;-83
2024/03/21 04:09:55;;;;;;;;;;;;;;;;;;2096992;28;20083;-83
2024/03/21 04:10:57;;;;;;;46.13;29.63;;;;;;;;;;2094777;28;20373;-83
2024/03/21 04:11:58;;;;;;;46.95;31.13;;;;;;;;;;2094925;28;20070;-83
2024/03/21 04:12:59;;;;;;;44.63;29.70;;;;;;;;;;2094508;28;20052;-82
2024/03/21 04:13:59;;;;;;;;;;;;;;;;;;2095329;28;20039;-82
2024/03/21 04:15:00;;;;;;;47.88;29.20;;;;;;;;;;2095620;28;19921;-82
2024/03/21 04:16:01;;;;;;;;;;;;;;;;;;2093803;28;20058;-83
2024/03/21 04:17:03;;;;;;;46.90;29.10;;;;;;;;;;2092860;28;20397;-82
2024/03/21 04:18:03;;;;;;;45.00;29.80;;;;;;;;;;2097876;28;20037;-84
2024/03/21 04:19:04;;;;;;;;;;;;;;;;;;2094145;28;20052;-81
2024/03/21 04:20:07;;;;;;;46.00;29.43;;;;;;;;;;2096432;28;19969;-82
2024/03/21 04:21:07;;;;;;;46.17;29.75;;;;;;;;;;2093936;28;20064;-82
2024/03/21 04:22:08;;;;;;;;;;;;;;;;;;2096295;28;20139;-82
2024/03/21 04:23:09;;;;;;;49.50;30.07;;;;;;;;;;2094996;28;19969;-85
2024/03/21 04:24:11;;;;;;;46.17;29.88;;;;;;;;;;2093080;28;20571;-84
2024/03/21 04:25:13;;;;;;;47.03;30.38;;;;;;;;;;2093710;28;20052;-82
2024/03/21 04:26:14;;;;;;;49.55;31.73;;;;;;;;;;2092549;28;20052;-83
2024/03/21 04:27:15;;;;;;;;;;;;;;;;;;2095451;28;20223;-84
2024/03/21 04:28:16;;;;;;;52.38;30.20;;;;;;;;;;2094430;28;20374;-84
2024/03/21 04:29:16;;;;;;;;;;;;;;;;;;2095037;28;20052;-84
2024/03/21 04:30:17;;;;;;;45.97;29.05;;;;;;;;;;2095229;28;19996;-84
2024/03/21 04:31:18;;;;;;;;;;;;;;;;;;2100570;28;20071;-85
2024/03/21 04:32:19;;;;;;;51.60;31.02;;;;;;;;;;2099682;28;19920;-82
2024/03/21 04:33:19;;;;;;;;;;;;;;;;;;2099979;28;20106;-83
2024/03/21 04:34:21;;;;;;;49.22;30.60;;;;;;;;;;2096769;28;20012;-83
2024/03/21 04:35:21;;;;;;;50.08;29.65;;;;;;;;;;2096746;28;20395;-86
2024/03/21 04:36:22;;;;;;;;;;;;;;;;;;2098168;28;20052;-84
2024/03/21 04:37:23;;;;;;;49.40;29.48;;;;;;;;;;2096018;28;19928;-82
2024/03/21 04:38:24;;;;;;;52.50;30.80;;;;;;;;;;2092516;28;20053;-84
2024/03/21 04:39:25;;;;;;;;;;;;;;;;;;2092437;28;20567;-84
2024/03/21 04:40:27;;;;;;;45.83;30.05;;;;;;;;;;2093734;28;19924;-83
2024/03/21 04:41:28;;;;;;;48.47;31.25;;;;;;;;;;2096561;28;20074;-84
2024/03/21 04:42:29;;;;;;;;;;;;;;;;;;2095129;28;20131;-82
2024/03/21 04:43:30;;;;;;;49.75;30.23;;;;;;;;;;2095296;28;19968;-84
2024/03/21 04:44:30;;;;;;;;;;;;;;;;;;2097032;28;20121;-82
2024/03/21 04:45:32;;;;;;;47.13;29.80;;;;;;;;;;2096300;28;20396;-81
2024/03/21 04:46:33;;;;;;;50.03;30.05;;;;;;;;;;2098893;28;20044;-81
2024/03/21 04:47:33;;;;;;;;;;;;;;;;;;2095467;28;20559;-81
2024/03/21 04:48:35;;;;;;;50.60;30.80;;;;;;;;;;2096401;28;19932;-81
2024/03/21 04:49:35;;;;;;;47.53;30.10;;;;;;;;;;2096157;28;20090;-83
2024/03/21 04:50:36;;;;;;;;;;;;;;;;;;2095017;28;20097;-82
2024/03/21 04:51:38;;;;;;;48.93;30.77;;;;;;;;;;2095410;28;20003;-83
2024/03/21 04:52:38;;;;;;;50.88;30.88;;;;;;;;;;2094831;28;20872;-82
2024/03/21 04:53:38;;;;;;;;;;;;;;;;;;2093765;28;20053;-82
2024/03/21 04:54:39;;;;;;;48.75;30.52;;;;;;;;;;2097160;28;19951;-82
2024/03/21 04:55:42;;;;;;;;;;;;;;;;;;2094425;28;20135;-82
2024/03/21 04:56:42;;;;;;;46.38;30.02;;;;;;;;;;2097707;28;19924;-82
2024/03/21 04:57:43;;;;;;;;;;;;;;;;;;2096721;28;20158;-83
2024/03/21 04:58:43;;;;;;;48.90;30.10;;;;;;;;;;2098282;28;19951;-83
2024/03/21 04:59:45;;;;;;;;;;;;;;;;;;2096763;28;20060;-82
2024/03/21 05:00:46;;;;;;;48.42;29.65;;;;;;;;;;2093914;28;19942;-83
2024/03/21 05:01:46;;;;;;;;;;;;;;;;;;2097215;28;20135;-82
2024/03/21 05:02:47;;;;;;;48.23;29.60;;;;;;;;;;2092128;28;20042;-83
2024/03/21 05:03:48;;;;;;;;;;;;;;;;;;2094497;28;20068;-83
2024/03/21 05:04:49;;;;;;;55.20;31.17;;;;;;;;;;2093925;28;19981;-82
2024/03/21 05:05:49;;;;;;;;;;;;;;;;;;2097351;28;20501;-80
2024/03/21 05:06:52;;;;;;;50.03;30.90;;;;;;;;;;2097154;28;19978;-82
2024/03/21 05:07:53;;;;;;;49.45;30.52;;;;;;;;;;2094300;28;20056;-81
2024/03/21 05:08:54;;;;;;;48.45;30.40;;;;;;;;;;2095213;28;20850;-81
2024/03/21 05:09:54;;;;;;;;;;;;;;;;;;2095254;28;20143;-81
2024/03/21 05:10:56;;;;;;;52.67;30.98;;;;;;;;;;2096297;28;19963;-82
2024/03/21 05:11:58;;;;;;;49.00;30.58;;;;;;;;;;2093862;28;20948;-82
2024/03/21 05:12:59;;;;;;;49.13;30.42;;;;;;;;;;2093594;28;20049;-81
2024/03/21 05:13:59;;;;;;;;;;;;;;;;;;2095443;28;20515;-82
2024/03/21 05:15:01;;;;;;;49.80;30.57;;;;;;;;;;2093642;28;20332;-84
2024/03/21 05:16:01;;;;;;;46.40;29.60;;;;;;;;;;2094681;28;20047;-82
2024/03/21 05:17:02;;;;;;;;;;;;;;;;;;2095811;28;20466;-83
2024/03/21 05:18:03;;;;;;;51.67;29.35;;;;;;;;;;2092653;28;19940;-82
2024/03/21 05:19:04;;;;;;;;;;;;;;;;;;2094529;28;20052;-83
2024/03/21 05:20:06;;;;;;;45.63;28.83;;;;;;;;;;2093979;28;20298;-82
2024/03/21 05:21:07;;;;;;;46.08;28.23;;;;;;;;;;2093786;28;20078;-82
2024/03/21 05:22:08;;;;;;;;;;;;;;;;;;2093233;28;20135;-81
2024/03/21 05:23:09;;;;;;;44.17;27.30;;;;;;;;;;2093498;28;19920;-81
2024/03/21 05:24:09;;;;;;;;;;;;;;;;;;2096631;28;20468;-83
2024/03/21 05:25:11;;;;;;;43.90;27.37;;;;;;;;;;2094749;28;20468;-82
2024/03/21 05:26:13;;;;;;;48.30;29.55;;;;;;;;;;2093850;28;20041;-82
2024/03/21 05:27:15;;;;;;;50.65;31.50;;;;;;;;;;2093785;28;20048;-82
2024/03/21 05:28:15;;;;;;;49.63;30.92;;;;;;;;;;2093245;28;20059;-83
2024/03/21 05:29:17;;;;;;;;;;;;;;;;;;2095765;28;20434;-82
2024/03/21 05:30:18;;;;;;;48.55;28.75;;;;;;;;;;2098117;28;19924;-83
2024/03/21 05:31:21;;;;;;;;;;;;;;;;;;2095090;28;20150;-82
2024/03/21 05:32:22;;;;;;;48.25;29.67;;;;;;;;;;2094890;28;19924;-83
2024/03/21 05:33:23;;;;;;;;;;;;;;;;;;2096326;28;20048;-82
2024/03/21 05:34:24;;;;;;;53.25;30.73;;;;;;;;;;2094131;28;19969;-83
2024/03/21 05:35:24;;;;;;;;;;;;;;;;;;2096163;28;20118;-82
2024/03/21 05:36:25;;;;;;;49.80;29.87;;;;;;;;;;2098022;28;19919;-82
2024/03/21 05:37:27;;;;;;;;;;;;;;;;;;2094872;28;20413;-82
2024/03/21 05:38:27;;;;;;;52.38;29.88;;;;;;;;;;2096836;28;19978;-82
2024/03/21 05:39:28;;;;;;;;;;;;;;;;;;2093634;28;20099;-84
2024/03/21 05:40:29;;;;;;;55.23;31.07;;;;;;;;;;2091883;28;19917;-81
2024/03/21 05:41:32;;;;;;;;;;;;;;;;;;2094801;28;20449;-83
2024/03/21 05:42:32;;;;;;;55.63;31.50;;;;;;;;;;2094069;28;20811;-82
2024/03/21 05:43:34;;;;;;;;;;;;;;;;;;2094806;28;20053;-82
2024/03/21 05:44:35;;;;;;;55.55;31.58;;;;;;;;;;2095666;28;20305;-82
2024/03/21 05:45:36;;;;;;;52.05;30.50;;;;;;;;;;2095701;28;20102;-82
2024/03/21 05:46:36;;;;;;;;;;;;;;;;;;2097853;28;20098;-84
2024/03/21 05:47:37;;;;;;;54.27;32.97;;;;;;;;;;2098099;28;19986;-83
2024/03/21 05:48:39;;;;;;;;;;;;;;;;;;2095138;28;20123;-84
2024/03/21 05:49:39;;;;;;;;;;;;;;;;;;2097142;28;20034;-82
2024/03/21 05:50:40;;;;;;;53.10;30.97;;;;;;;;;;2096485;28;20531;-82
2024/03/21 05:51:41;;;;;;;;;;;;;;;;;;2097303;28;20049;-83
2024/03/21 05:52:43;;;;;;;52.97;30.42;;;;;;;;;;2097892;28;19942;-84
2024/03/21 05:53:43;;;;;;;57.03;30.85;;;;;;;;;;2098805;28;20055;-83
2024/03/21 05:54:47;;;;;;;;;;;;;;;;;;2097705;28;20058;-82
2024/03/21 05:56:00;;;;;;;50.58;31.50;;;;;;;;;;2094708;28;19924;-84
2024/03/21 05:57:03;;;;;;;51.58;30.42;;;;;;;;;;2095643;28;20058;-81
2024/03/21 05:58:04;;;;;;;52.13;31.27;;;;;;;;;;2095902;28;20077;-83
2024/03/21 05:59:04;;;;;;;;;;;;;;;;;;2097932;28;20102;-81
2024/03/21 06:00:06;;;;;;;49.83;29.93;;;;;;;;;;2098669;28;19931;-82
2024/03/21 06:01:22;;;;;;;55.17;31.23;;;;;;;;;;2095070;28;20044;-81
2024/03/21 06:02:22;;;;;;;49.97;29.75;;;;;;;;;;2096176;28;20342;-81
2024/03/21 06:03:23;;;;;;;;;;;;;;;;;;2100719;28;20489;-82
2024/03/21 06:04:25;;;;;;;52.58;31.08;;;;;;;;;;2095520;28;19935;-81
2024/03/21 06:05:25;;;;;;;53.30;32.28;;;;;;;;;;2096459;28;20052;-82
2024/03/21 06:06:26;;;;;;;;;;;;;;;;;;2096901;28;20052;-82
2024/03/21 06:07:26;;;;;;;48.00;28.93;;;;;;;;;;2095045;28;19981;-84
2024/03/21 06:08:28;;;;;;;;;;;;;;;;;;2098758;28;20044;-82
2024/03/21 06:09:29;;;;;;;55.85;30.48;;;;;;;;;;2097796;28;19920;-81
2024/03/21 06:10:30;;;;;;;52.50;31.20;;;;;;;;;;2094661;28;20063;-81
2024/03/21 06:11:32;;;;;;;52.10;31.15;;;;;;;;;;2099812;28;20136;-82
2024/03/21 06:12:34;;;;;;;47.90;29.98;;;;;;;;;;2099424;28;20045;-84
2024/03/21 06:13:34;;;;;;;50.13;32.05;;;;;;;;;;2099107;28;20041;-81
2024/03/21 06:14:35;;;;;;;;;;;;;;;;;;2102426;28;20044;-81
2024/03/21 06:15:36;;;;;;;50.50;30.08;;;;;;;;;;2100801;28;19922;-82
2024/03/21 06:16:37;;;;;;;51.08;30.50;;;;;;;;;;2101153;28;20458;-82
2024/03/21 06:17:37;;;;;;;;;;;;;;;;;;2100423;28;20079;-81
2024/03/21 06:18:38;;;;;;;49.30;29.58;;;;;;;;;;2099222;28;19928;-83
2024/03/21 06:19:40;;;;;;;;;;;;;;;;;;2098982;28;20056;-82
2024/03/21 06:20:40;;;;;;;47.67;28.38;;;;;;;;;;2097151;28;20389;-81
2024/03/21 06:21:41;;;;;;;;;;;;;;;;;;2096430;28;20052;-81